createdAt,value
2018-11-05T00:00:56.977Z,8.20
2018-11-05T00:03:23.261Z,8.10
2018-11-05T00:05:49.591Z,8.04
2018-11-05T00:08:15.919Z,8.06
2018-11-05T00:10:42.216Z,8.00
2018-11-05T00:13:08.554Z,7.92
2018-11-05T00:15:34.872Z,7.83
2018-11-05T00:18:01.173Z,7.83
2018-11-05T00:20:27.502Z,7.82
2018-11-05T00:22:53.824Z,7.76
2018-11-05T00:25:20.148Z,7.75
2018-11-05T00:27:46.450Z,7.76
2018-11-05T00:30:12.764Z,7.78
2018-11-05T00:32:39.090Z,7.77
2018-11-05T00:35:05.444Z,7.76
2018-11-05T00:37:31.736Z,7.75
2018-11-05T00:39:58.067Z,7.77
2018-11-05T00:42:24.376Z,7.74
2018-11-05T00:44:50.704Z,7.74
2018-11-05T00:47:17.035Z,7.73
2018-11-05T00:49:43.337Z,7.70
2018-11-05T00:52:09.673Z,7.68
2018-11-05T00:54:35.998Z,7.70
2018-11-05T00:57:02.304Z,7.72
2018-11-05T00:59:28.603Z,7.68
2018-11-05T01:01:54.942Z,7.63
2018-11-05T01:04:21.242Z,7.67
2018-11-05T01:06:47.567Z,7.75
2018-11-05T01:09:13.868Z,7.82
2018-11-05T01:11:40.181Z,7.77
2018-11-05T01:14:06.500Z,7.76
2018-11-05T01:16:32.802Z,7.72
2018-11-05T01:18:59.126Z,7.66
2018-11-05T01:21:25.425Z,7.64
2018-11-05T01:23:51.736Z,7.67
2018-11-05T01:26:18.040Z,7.69
2018-11-05T01:28:44.367Z,7.62
2018-11-05T01:31:10.696Z,7.58
2018-11-05T01:33:36.999Z,7.53
2018-11-05T01:36:03.325Z,7.52
2018-11-05T01:38:29.650Z,7.49
2018-11-05T01:40:55.989Z,7.58
2018-11-05T01:43:22.288Z,7.59
2018-11-05T01:45:48.615Z,7.65
2018-11-05T01:48:14.922Z,7.65
2018-11-05T01:50:41.253Z,7.65
2018-11-05T01:53:07.578Z,7.69
2018-11-05T01:55:33.871Z,7.73
2018-11-05T01:58:00.197Z,7.74
2018-11-05T02:00:26.495Z,7.78
2018-11-05T02:02:52.796Z,7.81
2018-11-05T02:05:19.124Z,7.81
2018-11-05T02:07:45.431Z,7.85
2018-11-05T02:10:11.815Z,7.87
2018-11-05T02:12:38.098Z,7.90
2018-11-05T02:15:04.425Z,7.90
2018-11-05T02:17:30.741Z,7.88
2018-11-05T02:19:57.044Z,7.92
2018-11-05T02:22:23.344Z,7.93
2018-11-05T02:24:49.682Z,7.89
2018-11-05T02:27:16.121Z,7.92
2018-11-05T02:29:42.308Z,7.93
2018-11-05T02:32:08.629Z,7.90
2018-11-05T02:34:34.957Z,7.85
2018-11-05T02:37:01.264Z,7.85
2018-11-05T02:39:27.586Z,7.84
2018-11-05T02:41:53.901Z,7.86
2018-11-05T02:44:20.265Z,7.86
2018-11-05T02:46:46.589Z,7.83
2018-11-05T02:49:12.948Z,7.83
2018-11-05T02:51:39.248Z,7.81
2018-11-05T02:54:05.569Z,7.79
2018-11-05T02:56:31.891Z,7.81
2018-11-05T02:58:58.213Z,7.81
2018-11-05T03:01:24.538Z,7.76
2018-11-05T03:03:50.875Z,7.78
2018-11-05T03:06:17.176Z,7.73
2018-11-05T03:08:43.508Z,7.74
2018-11-05T03:11:09.836Z,7.74
2018-11-05T03:13:36.149Z,7.71
2018-11-05T03:16:02.456Z,7.71
2018-11-05T03:18:28.760Z,7.76
2018-11-05T03:20:55.090Z,7.75
2018-11-05T03:23:21.395Z,7.74
2018-11-05T03:25:47.692Z,7.75
2018-11-05T03:28:14.085Z,7.79
2018-11-05T03:30:40.393Z,7.81
2018-11-05T03:33:06.721Z,7.78
2018-11-05T03:35:33.073Z,7.74
2018-11-05T03:37:59.332Z,7.72
2018-11-05T03:40:25.660Z,7.74
2018-11-05T03:42:52.081Z,7.78
2018-11-05T03:45:18.404Z,7.76
2018-11-05T03:47:44.729Z,7.79
2018-11-05T03:50:11.027Z,7.76
2018-11-05T03:52:37.356Z,7.78
2018-11-05T03:55:03.677Z,7.83
2018-11-05T03:57:29.988Z,7.82
2018-11-05T03:59:56.312Z,7.78
2018-11-05T04:02:22.613Z,7.72
2018-11-05T04:04:48.926Z,7.69
2018-11-05T04:07:15.228Z,7.70
2018-11-05T04:09:41.524Z,7.75
2018-11-05T04:12:07.864Z,7.79
2018-11-05T04:14:34.170Z,7.88
2018-11-05T04:17:00.467Z,7.97
2018-11-05T04:19:26.767Z,8.09
2018-11-05T04:21:53.071Z,8.16
2018-11-05T04:24:19.368Z,8.25
2018-11-05T04:26:45.733Z,8.31
2018-11-05T04:29:12.032Z,8.30
2018-11-05T04:31:38.336Z,8.31
2018-11-05T04:34:04.656Z,8.31
2018-11-05T04:36:30.987Z,8.27
2018-11-05T04:38:57.304Z,8.21
2018-11-05T04:41:23.603Z,8.11
2018-11-05T04:43:49.908Z,8.10
2018-11-05T04:46:16.209Z,8.12
2018-11-05T04:48:42.517Z,8.11
2018-11-05T04:51:08.820Z,8.07
2018-11-05T04:53:35.126Z,8.01
2018-11-05T04:56:01.419Z,7.98
2018-11-05T04:58:27.740Z,7.95
2018-11-05T05:00:54.064Z,7.92
2018-11-05T05:05:46.721Z,7.86
2018-11-05T05:08:13.015Z,7.89
2018-11-05T05:10:39.320Z,7.89
2018-11-05T05:13:05.636Z,7.90
2018-11-05T05:15:31.967Z,7.90
2018-11-05T05:17:58.281Z,7.97
2018-11-05T05:20:24.591Z,7.99
2018-11-05T05:22:51.108Z,8.02
2018-11-05T05:25:17.214Z,8.07
2018-11-05T05:27:43.517Z,8.19
2018-11-05T05:30:09.851Z,8.40
2018-11-05T05:32:36.169Z,8.47
2018-11-05T05:35:02.492Z,8.62
2018-11-05T05:37:28.816Z,8.85
2018-11-05T05:39:55.132Z,9.12
2018-11-05T05:42:21.453Z,9.33
2018-11-05T05:44:47.779Z,9.48
2018-11-05T05:47:14.094Z,9.78
2018-11-05T05:49:40.419Z,10.07
2018-11-05T05:52:06.746Z,10.27
2018-11-05T05:54:33.076Z,10.24
2018-11-05T05:56:59.373Z,10.46
2018-11-05T05:59:25.699Z,10.64
2018-11-05T06:01:52.004Z,10.86
2018-11-05T06:04:18.325Z,10.98
2018-11-05T06:06:44.653Z,11.12
2018-11-05T06:09:10.976Z,11.13
2018-11-05T06:11:37.294Z,11.12
2018-11-05T06:14:03.637Z,11.30
2018-11-05T06:16:29.948Z,11.36
2018-11-05T06:18:56.267Z,11.30
2018-11-05T06:21:22.594Z,11.37
2018-11-05T06:23:48.902Z,11.62
2018-11-05T06:26:15.228Z,12.50
2018-11-05T06:28:41.663Z,12.89
2018-11-05T06:31:07.896Z,12.68
2018-11-05T06:33:34.222Z,12.55
2018-11-05T06:36:00.533Z,12.37
2018-11-05T06:38:26.859Z,12.53
2018-11-05T06:40:53.180Z,12.57
2018-11-05T06:43:19.536Z,12.74
2018-11-05T06:45:45.857Z,12.91
2018-11-05T06:48:12.160Z,12.77
2018-11-05T06:50:38.490Z,12.69
2018-11-05T06:53:04.834Z,12.93
2018-11-05T06:55:31.157Z,12.93
2018-11-05T06:57:57.477Z,13.13
2018-11-05T07:00:23.810Z,13.43
2018-11-05T07:02:50.104Z,13.59
2018-11-05T07:05:16.435Z,13.65
2018-11-05T07:07:42.767Z,13.79
2018-11-05T07:10:09.090Z,14.00
2018-11-05T07:12:35.422Z,14.37
2018-11-05T07:15:01.727Z,13.93
2018-11-05T07:17:28.036Z,13.95
2018-11-05T07:19:54.363Z,14.11
2018-11-05T07:22:20.668Z,14.23
2018-11-05T07:24:46.978Z,14.11
2018-11-05T07:27:13.334Z,14.09
2018-11-05T07:29:39.653Z,14.09
2018-11-05T07:32:05.957Z,14.28
2018-11-05T07:34:32.303Z,14.41
2018-11-05T07:36:58.565Z,14.33
2018-11-05T07:39:24.870Z,14.28
2018-11-05T07:41:51.195Z,14.52
2018-11-05T07:44:17.526Z,14.51
2018-11-05T07:46:43.854Z,14.92
2018-11-05T07:49:10.178Z,15.06
2018-11-05T07:51:36.481Z,14.83
2018-11-05T07:54:02.826Z,15.00
2018-11-05T07:56:29.150Z,15.44
2018-11-05T07:58:55.475Z,15.60
2018-11-05T08:01:21.793Z,15.55
2018-11-05T08:03:48.118Z,15.36
2018-11-05T08:06:14.430Z,15.34
2018-11-05T08:08:40.762Z,15.27
2018-11-05T08:11:07.064Z,15.07
2018-11-05T08:13:33.385Z,15.19
2018-11-05T08:15:59.750Z,14.91
2018-11-05T08:18:26.073Z,14.82
2018-11-05T08:20:52.402Z,14.99
2018-11-05T08:23:18.740Z,15.16
2018-11-05T08:25:45.050Z,15.27
2018-11-05T08:28:11.379Z,15.63
2018-11-05T08:30:37.691Z,15.57
2018-11-05T08:33:03.988Z,15.26
2018-11-05T08:35:30.298Z,15.73
2018-11-05T08:37:56.610Z,15.93
2018-11-05T08:40:22.942Z,16.12
2018-11-05T08:42:49.241Z,16.56
2018-11-05T08:45:15.565Z,16.77
2018-11-05T08:47:41.873Z,16.78
2018-11-05T08:50:08.249Z,16.74
2018-11-05T08:52:34.488Z,16.95
2018-11-05T08:55:00.814Z,16.71
2018-11-05T08:57:27.148Z,17.24
2018-11-05T08:59:53.425Z,16.88
2018-11-05T09:02:19.728Z,16.94
2018-11-05T09:04:46.091Z,16.91
2018-11-05T09:07:12.360Z,16.86
2018-11-05T09:09:38.662Z,16.78
2018-11-05T09:12:05.059Z,16.76
2018-11-05T09:14:31.323Z,17.11
2018-11-05T09:16:57.654Z,17.53
2018-11-05T09:19:23.960Z,16.87
2018-11-05T09:21:50.291Z,16.54
2018-11-05T09:24:16.627Z,17.20
2018-11-05T09:26:42.958Z,17.56
2018-11-05T09:29:09.283Z,16.95
2018-11-05T09:31:35.590Z,17.02
2018-11-05T09:34:01.905Z,17.75
2018-11-05T09:36:28.229Z,17.53
2018-11-05T09:38:54.535Z,17.61
2018-11-05T09:41:20.840Z,17.78
2018-11-05T09:43:47.141Z,17.83
2018-11-05T09:46:13.443Z,18.43
2018-11-05T09:48:39.778Z,19.11
2018-11-05T09:51:06.085Z,18.48
2018-11-05T09:53:32.393Z,18.34
2018-11-05T09:55:58.702Z,18.71
2018-11-05T09:58:25.026Z,18.89
2018-11-05T10:00:51.363Z,18.88
2018-11-05T10:03:17.882Z,19.16
2018-11-05T10:05:44.079Z,19.41
2018-11-05T10:08:10.337Z,19.78
2018-11-05T10:10:36.674Z,19.51
2018-11-05T10:13:02.987Z,19.83
2018-11-05T10:15:29.316Z,19.91
2018-11-05T10:17:55.616Z,19.66
2018-11-05T10:20:21.941Z,19.70
2018-11-05T10:22:48.266Z,19.64
2018-11-05T10:25:14.765Z,19.99
2018-11-05T10:27:40.937Z,19.93
2018-11-05T10:30:07.243Z,19.77
2018-11-05T10:32:33.570Z,20.21
2018-11-05T10:34:59.901Z,20.04
2018-11-05T10:37:26.200Z,19.66
2018-11-05T10:39:52.512Z,19.86
2018-11-05T10:42:18.814Z,20.20
2018-11-05T10:44:45.122Z,20.00
2018-11-05T10:47:11.474Z,20.22
2018-11-05T10:49:37.807Z,20.30
2018-11-05T10:52:04.300Z,20.58
2018-11-05T10:54:30.450Z,20.67
2018-11-05T10:56:56.812Z,20.78
2018-11-05T10:59:23.099Z,20.28
2018-11-05T11:01:49.415Z,20.34
2018-11-05T11:04:15.763Z,20.68
2018-11-05T11:06:42.060Z,20.55
2018-11-05T11:09:08.406Z,20.56
2018-11-05T11:11:34.667Z,20.61
2018-11-05T11:14:00.990Z,20.66
2018-11-05T11:16:27.329Z,20.66
2018-11-05T11:18:53.635Z,21.15
2018-11-05T11:21:19.962Z,20.71
2018-11-05T11:23:46.290Z,20.91
2018-11-05T11:26:12.595Z,21.24
2018-11-05T11:28:38.943Z,21.26
2018-11-05T11:31:05.263Z,21.11
2018-11-05T11:33:31.561Z,20.97
2018-11-05T11:35:57.895Z,20.96
2018-11-05T11:38:24.258Z,20.82
2018-11-05T11:40:50.627Z,21.09
2018-11-05T11:43:16.947Z,21.07
2018-11-05T11:45:43.275Z,21.51
2018-11-05T11:48:09.584Z,21.31
2018-11-05T11:50:35.888Z,21.17
2018-11-05T11:53:03.215Z,21.53
2018-11-05T11:55:29.416Z,21.68
2018-11-05T11:57:55.909Z,20.73
2018-11-05T12:00:22.192Z,21.28
2018-11-05T12:02:48.514Z,21.81
2018-11-05T12:05:14.904Z,21.94
2018-11-05T12:07:41.175Z,21.99
2018-11-05T12:10:07.503Z,21.99
2018-11-05T12:12:33.808Z,21.86
2018-11-05T12:15:00.309Z,21.70
2018-11-05T12:17:26.478Z,22.16
2018-11-05T12:19:52.803Z,22.10
2018-11-05T12:22:19.135Z,22.03
2018-11-05T12:24:45.489Z,22.08
2018-11-05T12:27:11.768Z,22.30
2018-11-05T12:29:38.081Z,22.08
2018-11-05T12:32:04.451Z,22.05
2018-11-05T12:34:30.704Z,21.65
2018-11-05T12:36:57.040Z,21.78
2018-11-05T12:39:23.348Z,21.55
2018-11-05T12:41:49.657Z,21.21
2018-11-05T12:44:15.996Z,21.41
2018-11-05T12:46:42.364Z,21.49
2018-11-05T12:49:08.730Z,21.60
2018-11-05T12:51:37.529Z,21.53
2018-11-05T12:54:03.836Z,21.68
2018-11-05T12:56:30.211Z,21.97
2018-11-05T12:58:56.535Z,21.79
2018-11-05T13:01:22.858Z,20.92
2018-11-05T13:03:49.167Z,21.17
2018-11-05T13:06:15.538Z,21.29
2018-11-05T13:08:41.859Z,21.14
2018-11-05T13:11:08.165Z,21.29
2018-11-05T13:13:34.490Z,20.92
2018-11-05T13:16:00.822Z,20.91
2018-11-05T13:18:27.126Z,20.64
2018-11-05T13:20:53.440Z,20.49
2018-11-05T13:23:19.746Z,20.39
2018-11-05T13:25:46.070Z,20.02
2018-11-05T13:28:12.468Z,19.72
2018-11-05T13:30:38.836Z,19.26
2018-11-05T13:33:05.127Z,18.87
2018-11-05T13:35:31.454Z,18.85
2018-11-05T13:37:58.219Z,18.85
2018-11-05T13:40:24.064Z,18.77
2018-11-05T13:42:50.404Z,18.73
2018-11-05T13:45:16.910Z,18.80
2018-11-05T13:47:43.732Z,18.54
2018-11-05T13:50:09.777Z,18.51
2018-11-05T13:52:35.803Z,18.50
2018-11-05T13:55:02.367Z,18.37
2018-11-05T13:57:28.340Z,18.38
2018-11-05T13:59:54.626Z,18.34
2018-11-05T14:02:21.016Z,18.24
2018-11-05T14:04:47.290Z,18.26
2018-11-05T14:07:13.613Z,18.30
2018-11-05T14:09:39.925Z,18.23
2018-11-05T14:12:06.229Z,18.20
2018-11-05T14:14:32.567Z,18.10
2018-11-05T14:16:58.917Z,18.06
2018-11-05T14:19:25.246Z,18.02
2018-11-05T14:21:51.548Z,17.94
2018-11-05T14:24:17.844Z,17.91
2018-11-05T14:26:44.207Z,17.87
2018-11-05T14:29:10.744Z,17.83
2018-11-05T14:31:36.835Z,17.81
2018-11-05T14:34:03.167Z,17.78
2018-11-05T14:36:29.676Z,17.70
2018-11-05T14:38:55.957Z,17.64
2018-11-05T14:41:22.307Z,17.57
2018-11-05T14:43:48.623Z,17.53
2018-11-05T14:46:14.952Z,17.48
2018-11-05T14:48:41.360Z,17.41
2018-11-05T14:51:07.651Z,17.36
2018-11-05T14:53:33.948Z,17.26
2018-11-05T14:56:00.313Z,17.17
2018-11-05T14:58:26.642Z,17.09
2018-11-05T15:00:52.970Z,16.98
2018-11-05T15:03:19.273Z,16.90
2018-11-05T15:05:45.613Z,16.83
2018-11-05T15:08:11.922Z,16.78
2018-11-05T15:10:38.239Z,16.72
2018-11-05T15:13:04.594Z,16.63
2018-11-05T15:15:30.885Z,16.57
2018-11-05T15:17:57.191Z,16.48
2018-11-05T15:20:23.566Z,16.40
2018-11-05T15:22:49.818Z,16.35
2018-11-05T15:25:16.124Z,16.28
2018-11-05T15:27:42.427Z,16.20
2018-11-05T15:30:08.745Z,16.13
2018-11-05T15:32:35.121Z,16.05
2018-11-05T15:35:01.443Z,15.99
2018-11-05T15:37:27.774Z,15.91
2018-11-05T15:39:54.102Z,15.85
2018-11-05T15:42:20.430Z,15.82
2018-11-05T15:44:46.738Z,15.82
2018-11-05T15:47:13.061Z,15.81
2018-11-05T15:49:39.376Z,15.82
2018-11-05T15:52:06.138Z,15.78
2018-11-05T15:54:32.125Z,15.68
2018-11-05T15:56:58.309Z,15.60
2018-11-05T15:59:24.618Z,15.56
2018-11-05T16:01:50.920Z,15.49
2018-11-05T16:04:17.278Z,15.50
2018-11-05T16:06:43.532Z,15.45
2018-11-05T16:09:09.868Z,15.41
2018-11-05T16:11:36.196Z,15.41
2018-11-05T16:14:02.527Z,15.34
2018-11-05T16:16:28.853Z,15.23
2018-11-05T16:18:55.164Z,15.14
2018-11-05T16:21:21.494Z,15.05
2018-11-05T16:23:47.886Z,14.94
2018-11-05T16:26:14.143Z,14.81
2018-11-05T16:28:40.474Z,14.69
2018-11-05T16:31:06.778Z,14.55
2018-11-05T16:33:33.086Z,14.36
2018-11-05T16:35:59.411Z,14.24
2018-11-05T16:38:25.771Z,14.15
2018-11-05T16:40:52.025Z,13.96
2018-11-05T16:43:18.347Z,13.69
2018-11-05T16:45:44.685Z,13.45
2018-11-05T16:48:10.994Z,13.25
2018-11-05T16:50:37.298Z,13.18
2018-11-05T16:53:03.610Z,13.11
2018-11-05T16:55:29.915Z,13.07
2018-11-05T16:57:56.363Z,13.08
2018-11-05T17:00:22.599Z,12.97
2018-11-05T17:02:49.129Z,12.84
2018-11-05T17:05:15.213Z,12.72
2018-11-05T17:07:41.519Z,12.58
2018-11-05T17:10:07.857Z,12.43
2018-11-05T17:12:34.184Z,12.30
2018-11-05T17:15:00.481Z,12.19
2018-11-05T17:17:26.789Z,12.11
2018-11-05T17:19:53.113Z,12.02
2018-11-05T17:22:19.422Z,11.96
2018-11-05T17:24:45.731Z,11.94
2018-11-05T17:27:12.146Z,11.89
2018-11-05T17:29:38.483Z,11.82
2018-11-05T17:32:04.783Z,11.76
2018-11-05T17:34:31.101Z,11.67
2018-11-05T17:36:57.424Z,11.61
2018-11-05T17:39:23.729Z,11.63
2018-11-05T17:41:50.029Z,11.59
2018-11-05T17:44:16.478Z,11.52
2018-11-05T17:46:42.749Z,11.49
2018-11-05T17:49:09.050Z,11.43
2018-11-05T17:51:35.383Z,11.40
2018-11-05T17:54:01.690Z,11.37
2018-11-05T17:56:28.018Z,11.30
2018-11-05T17:58:54.321Z,11.21
2018-11-05T18:01:20.655Z,11.15
2018-11-05T18:03:47.042Z,11.12
2018-11-05T18:06:13.289Z,11.06
2018-11-05T18:08:39.650Z,11.01
2018-11-05T18:11:05.912Z,10.93
2018-11-05T18:13:32.247Z,10.87
2018-11-05T18:15:58.576Z,10.86
2018-11-05T18:18:25.021Z,10.86
2018-11-05T18:20:51.331Z,10.86
2018-11-05T18:23:17.699Z,10.88
2018-11-05T18:25:44.030Z,10.87
2018-11-05T18:28:10.485Z,10.88
2018-11-05T18:30:36.773Z,10.86
2018-11-05T18:33:03.109Z,10.85
2018-11-05T18:35:29.424Z,10.83
2018-11-05T18:37:55.769Z,10.83
2018-11-05T18:40:22.098Z,10.84
2018-11-05T18:42:48.452Z,10.80
2018-11-05T18:45:14.798Z,10.79
2018-11-05T18:47:41.068Z,10.77
2018-11-05T18:50:07.457Z,10.72
2018-11-05T18:52:33.807Z,10.70
2018-11-05T18:55:00.248Z,10.67
2018-11-05T18:57:26.607Z,10.67
2018-11-05T18:59:52.910Z,10.67
2018-11-05T19:02:19.212Z,10.64
2018-11-05T19:04:45.538Z,10.61
2018-11-05T19:07:11.964Z,10.58
2018-11-05T19:09:38.337Z,10.53
2018-11-05T19:12:04.599Z,10.49
2018-11-05T19:14:30.930Z,10.44
2018-11-05T19:16:57.234Z,10.38
2018-11-05T19:19:23.564Z,10.35
2018-11-05T19:21:49.864Z,10.31
2018-11-05T19:24:16.477Z,10.29
2018-11-05T19:26:42.504Z,10.24
2018-11-05T19:29:08.859Z,10.18
2018-11-05T19:31:35.188Z,10.12
2018-11-05T19:34:01.599Z,10.07
2018-11-05T19:36:27.819Z,10.01
2018-11-05T19:38:54.122Z,9.97
2018-11-05T19:41:20.445Z,9.93
2018-11-05T19:43:46.744Z,9.90
2018-11-05T19:46:13.092Z,9.88
2018-11-05T19:48:39.419Z,9.83
2018-11-05T19:51:05.720Z,9.77
2018-11-05T19:53:32.040Z,9.71
2018-11-05T19:55:58.406Z,9.63
2018-11-05T19:58:24.686Z,9.59
2018-11-05T20:00:51.048Z,9.55
2018-11-05T20:03:17.295Z,9.53
2018-11-05T20:05:43.649Z,9.49
2018-11-05T20:08:09.943Z,9.47
2018-11-05T20:10:36.301Z,9.42
2018-11-05T20:13:02.612Z,9.41
2018-11-05T20:15:28.957Z,9.41
2018-11-05T20:17:55.261Z,9.37
2018-11-05T20:20:21.585Z,9.36
2018-11-05T20:22:47.898Z,9.30
2018-11-05T20:25:14.209Z,9.24
2018-11-05T20:27:40.537Z,9.20
2018-11-05T20:30:06.859Z,9.16
2018-11-05T20:32:33.629Z,9.12
2018-11-05T20:34:59.499Z,9.09
2018-11-05T20:37:25.822Z,9.03
2018-11-05T20:39:52.225Z,9.01
2018-11-05T20:42:18.461Z,8.96
2018-11-05T20:44:44.792Z,8.92
2018-11-05T20:47:11.121Z,8.88
2018-11-05T20:49:37.423Z,8.84
2018-11-05T20:52:03.749Z,8.79
2018-11-05T20:54:30.052Z,8.74
2018-11-05T20:56:56.388Z,8.68
2018-11-05T20:59:22.718Z,8.62
2018-11-05T21:01:49.015Z,8.56
2018-11-05T21:04:15.316Z,8.50
2018-11-05T21:06:41.616Z,8.46
2018-11-05T21:09:07.921Z,8.37
2018-11-05T21:11:34.220Z,8.31
2018-11-05T21:14:00.546Z,8.29
2018-11-05T21:16:26.868Z,8.26
2018-11-05T21:18:53.176Z,8.24
2018-11-05T21:21:19.642Z,8.18
2018-11-05T21:23:45.787Z,8.12
2018-11-05T21:26:12.122Z,8.03
2018-11-05T21:28:38.423Z,8.04
2018-11-05T21:31:04.750Z,8.07
2018-11-05T21:33:31.163Z,8.03
2018-11-05T21:35:57.493Z,8.00
2018-11-05T21:38:23.890Z,8.02
2018-11-05T21:40:50.246Z,8.07
2018-11-05T21:43:16.541Z,8.06
2018-11-05T21:45:42.977Z,8.06
2018-11-05T21:48:09.309Z,8.04
2018-11-05T21:50:35.670Z,8.07
2018-11-05T21:53:01.980Z,8.11
2018-11-05T21:55:28.305Z,8.16
2018-11-05T21:57:54.744Z,8.20
2018-11-05T22:00:21.017Z,8.22
2018-11-05T22:02:47.342Z,8.27
2018-11-05T22:05:13.645Z,8.29
2018-11-05T22:07:39.972Z,8.24
2018-11-05T22:10:06.277Z,8.21
2018-11-05T22:12:32.580Z,8.18
2018-11-05T22:14:58.906Z,8.15
2018-11-05T22:17:25.204Z,8.13
2018-11-05T22:19:51.523Z,8.16
2018-11-05T22:22:17.880Z,8.14
2018-11-05T22:24:44.155Z,8.11
2018-11-05T22:27:10.464Z,8.10
2018-11-05T22:29:36.760Z,8.05
2018-11-05T22:32:03.076Z,8.01
2018-11-05T22:34:29.383Z,8.00
2018-11-05T22:36:55.684Z,7.97
2018-11-05T22:39:22.033Z,7.96
2018-11-05T22:41:48.353Z,7.92
2018-11-05T22:44:14.654Z,7.86
2018-11-05T22:46:40.957Z,7.80
2018-11-05T22:49:07.264Z,7.78
2018-11-05T22:51:33.567Z,7.78
2018-11-05T22:53:59.892Z,7.81
2018-11-05T22:56:26.212Z,7.83
2018-11-05T22:58:52.572Z,7.83
2018-11-05T23:01:18.871Z,7.90
2018-11-05T23:03:45.176Z,7.92
2018-11-05T23:06:11.493Z,7.98
2018-11-05T23:08:37.780Z,7.87
2018-11-05T23:11:04.110Z,7.74
2018-11-05T23:13:30.442Z,7.71
2018-11-05T23:15:56.745Z,7.69
2018-11-05T23:18:23.069Z,7.61
2018-11-05T23:20:49.414Z,7.49
2018-11-05T23:23:15.724Z,7.50
2018-11-05T23:25:42.045Z,7.39
2018-11-05T23:28:08.347Z,7.36
2018-11-05T23:30:34.647Z,7.30
2018-11-05T23:33:00.947Z,7.20
2018-11-05T23:35:27.268Z,7.11
2018-11-05T23:37:53.593Z,7.08
2018-11-05T23:40:19.899Z,7.07
2018-11-05T23:42:46.224Z,7.05
2018-11-05T23:45:12.526Z,7.00
2018-11-05T23:47:38.900Z,6.94
2018-11-05T23:50:05.228Z,6.89
2018-11-05T23:52:31.523Z,7.03
2018-11-05T23:54:57.849Z,7.09
2018-11-05T23:57:24.169Z,7.05
2018-11-05T23:59:50.473Z,6.95
